Northeast Philadelphia Airport
KPNE : now visible

Airfield :











YOU CAN JOIN US ON...

 
LOGIN :

Register | Disclaimer

   EN    FR    IT 

 









Legend :    VFR   Marginal VFR   IFR   Intensive IFR   Very Intensive IFR
Visi :
Ceiling :
>= 8 km
>= 3000ft
5 to 8 km
1000 to 3000 ft
1500m to 5 km
500 to 1000 ft
800 to 1500m
200 to 500 ft
< 800m
< 200 ft
Symbols :   Thunderstorms  Fog  Heavy snow  Heavy precipitations  Wind > 20 kt






- Airport Elevation : 120 ft


KPNE - Northeast Philadelphia

CURRENT METAR :
  • 191754Z 00000KT 10SM SCT075 SCT100 31/13 A3008 RMK AO2 SLP183 T03060133 10333 20183 $

EXPIRED METARs :
  • 191654Z 00000KT 10SM FEW070 31/12 A3008 RMK AO2 SLP183 T03060117 $
  • 191554Z VRB03KT 10SM CLR 32/12 A3009 RMK AO2 SLP187 T03170122 $
  • 191511Z 27006KT 10SM 31/13 A3010 RMK AO2 T03110133 $

TAF KPNE
Valid from the 19 at 18:00 until the 20 at 18:00 UTC


191720Z 1918/2018 23007KT P6SM SCT070
FM200000 20007KT P6SM BKN250
FM200500 VRB03KT P6SM SCT120 BKN250
FM201400 17006KT P6SM SCT060
KZDC FIR / North America



MET'MAP, your aeronautical weather chart ! - Copyright ORBIFLY December 2007 - Disclaimer

ORBIFLY MET'MAP TEAM :

Programming & Development : Alexandra Zaïnal
Original concept : Baudouin d'Aumeries
Technical & hardware support : Manuel Goepfert
Assistance : Marc-Olivier Méhu




SOURCES & CREDITS :

   NOAA       Earth
Advisory